Newent, United Kingdom
Current Conditions -  °F | °C
As of 11:20 AM on Friday 24 Oct 2014 (Local Time) from EGBJ Reporting Station
Moderate Rain Moderate Rain  
Wind Chill: 59°   Ceiling: 2500
Heat Index: 59°   Visibility: 6mi
Dew Point: 57°   Wind: 8mph
Humidity: 94%   Direction: 210°SSW
Pressure: 29.91"   Gusts: NA
Location:  51.93°N, 2.41°W
Report Text: EGBJ 241020Z 21007KT 9000 RA SCT007 BKN025 15/14 Q1013
Loading
Personal Weather Stations






























Interactive Weather Map New forecast layout! Learn more

10-Day Weather Forecast

Advertisements
Track Severe Weather on mobile